createdAt,value
2019-02-16T00:00:32.760Z,5.37
2019-02-16T00:03:03.687Z,6.13
2019-02-16T00:05:34.033Z,6.67
2019-02-16T00:08:04.593Z,6.87
2019-02-16T00:10:35.017Z,5.13
2019-02-16T00:13:06.241Z,5.87
2019-02-16T00:15:37.055Z,5.60
2019-02-16T00:18:07.785Z,5.20
2019-02-16T00:20:38.158Z,6.10
2019-02-16T00:23:08.489Z,5.83
2019-02-16T00:25:38.888Z,7.10
2019-02-16T00:28:09.266Z,5.83
2019-02-16T00:30:40.252Z,4.87
2019-02-16T00:33:10.924Z,4.70
2019-02-16T00:35:41.589Z,8.47
2019-02-16T00:38:12.007Z,5.60
2019-02-16T00:40:42.743Z,5.40
2019-02-16T00:43:13.098Z,7.23
2019-02-16T00:45:43.812Z,5.47
2019-02-16T00:48:14.145Z,6.53
2019-02-16T00:50:44.866Z,5.10
2019-02-16T00:53:15.283Z,6.43
2019-02-16T00:55:45.634Z,7.60
2019-02-16T00:58:16.357Z,7.70
2019-02-16T01:00:46.750Z,5.50
2019-02-16T01:03:17.077Z,5.67
2019-02-16T01:05:47.981Z,6.30
2019-02-16T01:08:19.911Z,5.17
2019-02-16T01:10:52.268Z,5.40
2019-02-16T01:13:22.929Z,5.53
2019-02-16T01:15:53.275Z,7.03
2019-02-16T01:18:23.587Z,6.63
2019-02-16T01:20:54.013Z,8.77
2019-02-16T01:23:24.342Z,6.30
2019-02-16T01:25:55.022Z,5.57
2019-02-16T01:28:25.767Z,5.43
2019-02-16T01:30:56.104Z,7.30
2019-02-16T01:33:27.221Z,4.83
2019-02-16T01:36:17.273Z,5.07
2019-02-16T01:38:47.643Z,6.03
2019-02-16T01:41:18.097Z,6.00
2019-02-16T01:43:48.963Z,5.13
2019-02-16T01:46:19.528Z,7.07
2019-02-16T01:48:50.607Z,4.93
2019-02-16T01:51:21.659Z,4.50
2019-02-16T01:53:52.061Z,4.93
2019-02-16T01:56:22.748Z,5.87
2019-02-16T01:58:54.109Z,6.13
2019-02-16T02:01:30.621Z,5.87
2019-02-16T02:04:01.987Z,4.33
2019-02-16T02:06:32.763Z,5.27
2019-02-16T02:09:04.565Z,4.33
2019-02-16T02:11:35.016Z,4.90
2019-02-16T02:14:26.822Z,5.20
2019-02-16T02:16:57.197Z,4.87
2019-02-16T02:19:28.223Z,4.97
2019-02-16T02:21:58.576Z,5.40
2019-02-16T02:24:29.196Z,5.10
2019-02-16T02:26:59.846Z,6.77
2019-02-16T02:29:30.468Z,3.90
2019-02-16T02:32:03.118Z,4.33
2019-02-16T02:34:33.416Z,5.23
2019-02-16T02:37:03.742Z,5.60
2019-02-16T02:39:34.127Z,5.40
2019-02-16T02:42:04.484Z,4.57
2019-02-16T02:44:35.068Z,5.47
2019-02-16T02:47:06.283Z,5.93
2019-02-16T02:49:36.646Z,5.40
2019-02-16T02:52:07.354Z,4.40
2019-02-16T02:54:38.043Z,4.20
2019-02-16T02:57:08.450Z,5.70
2019-02-16T02:59:39.243Z,4.73
2019-02-16T03:02:09.969Z,5.03
2019-02-16T03:04:40.387Z,6.47
2019-02-16T03:07:13.899Z,5.83
2019-02-16T03:09:44.353Z,6.03
2019-02-16T03:12:14.687Z,7.20
2019-02-16T03:14:46.356Z,5.73
2019-02-16T03:17:17.081Z,5.33
2019-02-16T03:19:47.430Z,5.67
2019-02-16T03:22:18.130Z,7.03
2019-02-16T03:24:58.449Z,5.50
2019-02-16T03:28:38.135Z,5.97
2019-02-16T03:31:54.859Z,6.57
2019-02-16T03:34:35.299Z,6.33
2019-02-16T03:38:15.435Z,4.93
2019-02-16T03:40:48.818Z,5.40
2019-02-16T03:43:19.994Z,8.00
2019-02-16T03:45:50.335Z,6.43
2019-02-16T03:48:20.740Z,6.87
2019-02-16T03:50:51.499Z,4.83
2019-02-16T03:53:22.106Z,5.67
2019-02-16T03:55:52.447Z,7.37
2019-02-16T03:58:23.187Z,5.13
2019-02-16T04:00:53.613Z,6.90
2019-02-16T04:03:24.332Z,7.07
2019-02-16T04:05:55.502Z,5.13
2019-02-16T04:08:25.913Z,6.70
2019-02-16T04:10:56.630Z,5.57
2019-02-16T04:13:27.688Z,5.93
2019-02-16T04:15:59.015Z,6.93
2019-02-16T04:18:30.532Z,4.97
2019-02-16T04:21:00.919Z,6.13
2019-02-16T04:23:31.308Z,6.30
2019-02-16T04:26:06.676Z,6.93
2019-02-16T04:28:37.045Z,8.13
2019-02-16T04:31:07.902Z,6.63
2019-02-16T04:33:38.323Z,6.63
2019-02-16T04:36:08.667Z,6.00
2019-02-16T04:38:38.974Z,6.57
2019-02-16T04:41:09.568Z,6.07
2019-02-16T04:43:39.958Z,8.23
2019-02-16T04:46:12.269Z,6.60
2019-02-16T04:48:42.906Z,8.13
2019-02-16T04:51:13.239Z,6.50
2019-02-16T04:53:43.531Z,6.60
2019-02-16T04:56:14.730Z,6.97
2019-02-16T04:58:45.082Z,5.47
2019-02-16T05:01:15.759Z,5.73
2019-02-16T05:03:46.517Z,5.20
2019-02-16T05:06:18.239Z,7.60
2019-02-16T05:08:48.629Z,5.10
2019-02-16T05:11:19.079Z,5.10
2019-02-16T05:13:50.130Z,5.70
2019-02-16T05:16:20.802Z,5.57
2019-02-16T05:18:51.457Z,4.73
2019-02-16T05:21:27.431Z,6.97
2019-02-16T05:23:58.357Z,5.70
2019-02-16T05:26:29.588Z,6.77
2019-02-16T05:29:00.306Z,5.23
2019-02-16T05:31:31.026Z,5.73
2019-02-16T05:34:01.352Z,6.33
2019-02-16T05:36:31.725Z,6.03
2019-02-16T05:39:02.101Z,5.83
2019-02-16T05:41:32.450Z,6.30
2019-02-16T05:44:08.493Z,6.33
2019-02-16T05:46:38.924Z,6.43
2019-02-16T05:49:09.533Z,7.40
2019-02-16T05:51:39.937Z,5.70
2019-02-16T05:54:10.264Z,6.10
2019-02-16T05:56:41.210Z,7.23
2019-02-16T05:59:11.573Z,6.30
2019-02-16T06:01:42.559Z,6.57
2019-02-16T06:04:13.167Z,5.73
2019-02-16T06:06:44.201Z,6.73
2019-02-16T06:09:14.790Z,6.33
2019-02-16T06:11:45.133Z,6.23
2019-02-16T06:14:15.890Z,7.93
2019-02-16T06:16:46.258Z,6.33
2019-02-16T06:19:16.616Z,7.67
2019-02-16T06:21:47.078Z,6.93
2019-02-16T06:24:17.657Z,7.67
2019-02-16T06:26:48.143Z,8.73
2019-02-16T06:29:18.495Z,7.20
2019-02-16T06:31:59.770Z,7.40
2019-02-16T06:34:32.277Z,6.73
2019-02-16T06:37:22.933Z,6.57
2019-02-16T06:39:53.609Z,7.77
2019-02-16T06:42:24.262Z,8.50
2019-02-16T06:44:55.267Z,8.47
2019-02-16T06:47:26.212Z,7.27
2019-02-16T06:49:57.541Z,9.10
2019-02-16T06:52:28.100Z,6.00
2019-02-16T06:55:05.323Z,5.60
2019-02-16T06:57:36.010Z,6.57
2019-02-16T07:00:07.416Z,6.23
2019-02-16T07:02:38.082Z,7.20
2019-02-16T07:05:08.546Z,8.53
2019-02-16T07:07:39.140Z,6.80
2019-02-16T07:10:15.396Z,7.37
2019-02-16T07:12:46.043Z,7.73
2019-02-16T07:15:17.302Z,9.67
2019-02-16T07:17:53.957Z,7.63
2019-02-16T07:20:25.163Z,12.07
2019-02-16T07:22:57.534Z,8.23
2019-02-16T07:25:28.099Z,8.00
2019-02-16T07:27:58.425Z,7.53
2019-02-16T07:30:29.077Z,7.00
2019-02-16T07:32:59.416Z,5.73
2019-02-16T07:35:29.996Z,6.67
2019-02-16T07:38:00.698Z,6.60
2019-02-16T07:40:31.307Z,7.53
2019-02-16T07:43:02.149Z,5.87
2019-02-16T07:45:49.992Z,6.73
2019-02-16T07:48:39.628Z,8.63
2019-02-16T07:51:41.028Z,7.23
2019-02-16T07:54:27.437Z,9.50
2019-02-16T07:57:05.569Z,6.83
2019-02-16T07:59:55.204Z,6.73
2019-02-16T08:02:43.476Z,6.70
2019-02-16T08:05:20.784Z,8.47
2019-02-16T08:08:16.198Z,7.83
2019-02-16T08:11:05.449Z,8.27
2019-02-16T08:14:03.976Z,5.57
2019-02-16T08:16:52.089Z,5.80
2019-02-16T08:19:27.746Z,7.63
2019-02-16T08:22:20.038Z,10.20
2019-02-16T08:25:03.413Z,6.47
2019-02-16T08:27:53.275Z,7.23
2019-02-16T08:30:30.930Z,8.13
2019-02-16T08:33:12.566Z,8.20
2019-02-16T08:35:50.311Z,6.90
2019-02-16T08:38:38.190Z,7.57
2019-02-16T08:41:25.620Z,6.37
2019-02-16T08:44:06.237Z,8.00
2019-02-16T08:46:47.118Z,6.87
2019-02-16T08:49:36.376Z,5.77
2019-02-16T08:52:28.479Z,6.87
2019-02-16T08:55:20.800Z,7.70
2019-02-16T08:58:10.479Z,8.13
2019-02-16T09:01:02.920Z,9.87
2019-02-16T09:04:04.304Z,7.53
2019-02-16T09:07:15.963Z,7.10
2019-02-16T09:10:04.159Z,8.13
2019-02-16T09:13:08.655Z,8.70
2019-02-16T09:16:01.270Z,7.53
2019-02-16T09:18:47.208Z,7.97
2019-02-16T09:21:51.886Z,7.73
2019-02-16T09:24:31.571Z,8.80
2019-02-16T09:27:19.487Z,7.93
2019-02-16T09:30:15.304Z,7.57
2019-02-16T09:33:23.302Z,8.20
2019-02-16T09:36:11.538Z,8.13
2019-02-16T09:38:56.616Z,9.00
2019-02-16T09:41:38.470Z,8.30
2019-02-16T09:44:27.383Z,8.83
2019-02-16T09:47:16.721Z,8.73
2019-02-16T09:50:18.235Z,8.20
2019-02-16T09:53:00.315Z,8.23
2019-02-16T09:56:01.776Z,9.23
2019-02-16T09:59:00.700Z,8.43
2019-02-16T10:01:50.306Z,9.83
2019-02-16T10:04:37.906Z,9.10
2019-02-16T10:07:26.706Z,10.47
2019-02-16T10:10:03.457Z,10.37
2019-02-16T10:12:52.734Z,11.63
2019-02-16T10:15:40.778Z,10.53
2019-02-16T10:18:36.112Z,11.73
2019-02-16T10:21:16.918Z,13.73
2019-02-16T10:24:00.036Z,9.57
2019-02-16T10:26:46.023Z,13.43
2019-02-16T10:29:44.285Z,13.30
2019-02-16T10:32:36.699Z,13.60
2019-02-16T10:35:26.405Z,14.00
2019-02-16T10:38:15.697Z,13.67
2019-02-16T10:41:08.031Z,14.47
2019-02-16T10:43:43.615Z,13.03
2019-02-16T10:46:32.873Z,12.60
2019-02-16T10:49:22.276Z,13.90
2019-02-16T10:51:59.120Z,14.30
2019-02-16T10:54:47.167Z,14.33
2019-02-16T10:57:35.341Z,14.67
2019-02-16T11:00:14.807Z,15.53
2019-02-16T11:03:05.204Z,12.83
2019-02-16T11:06:00.681Z,14.13
2019-02-16T11:08:56.935Z,17.77
2019-02-16T11:12:01.605Z,19.13
2019-02-16T11:14:41.154Z,18.53
2019-02-16T11:17:33.269Z,15.93
2019-02-16T11:20:30.927Z,16.73
2019-02-16T11:23:17.670Z,15.97
2019-02-16T11:25:59.678Z,18.13
2019-02-16T11:28:58.091Z,16.77
2019-02-16T11:32:03.413Z,17.20
2019-02-16T11:34:44.137Z,14.47
2019-02-16T11:37:36.455Z,19.63
2019-02-16T11:40:19.427Z,16.13
2019-02-16T11:43:11.912Z,18.53
2019-02-16T11:46:07.485Z,18.50
2019-02-16T11:48:54.664Z,20.63
2019-02-16T11:51:43.238Z,17.30
2019-02-16T11:54:45.487Z,17.47
2019-02-16T11:57:30.183Z,16.83
2019-02-16T12:00:21.840Z,18.87
2019-02-16T12:03:05.007Z,20.53
2019-02-16T12:05:49.917Z,16.83
2019-02-16T12:08:33.195Z,18.07
2019-02-16T12:11:21.960Z,16.30
2019-02-16T12:14:10.265Z,16.93
2019-02-16T12:16:59.899Z,17.40
2019-02-16T12:19:52.212Z,17.10
2019-02-16T12:22:39.327Z,19.40
2019-02-16T12:25:37.627Z,16.37
2019-02-16T12:28:45.091Z,16.00
2019-02-16T12:31:34.743Z,15.47
2019-02-16T12:34:25.635Z,16.73
2019-02-16T12:37:03.352Z,17.03
2019-02-16T12:39:45.831Z,17.27
2019-02-16T12:42:39.640Z,17.73
2019-02-16T12:45:24.390Z,17.43
2019-02-16T12:48:17.330Z,17.87
2019-02-16T12:51:03.632Z,18.67
2019-02-16T12:53:56.247Z,16.47
2019-02-16T12:56:50.090Z,17.20
2019-02-16T12:59:28.683Z,17.53
2019-02-16T13:02:30.856Z,17.20
2019-02-16T13:05:19.007Z,20.57
2019-02-16T13:08:03.919Z,16.77
2019-02-16T13:10:53.487Z,17.97
2019-02-16T13:13:29.520Z,17.77
2019-02-16T13:16:10.648Z,18.67
2019-02-16T13:19:00.225Z,22.43
2019-02-16T13:21:52.413Z,21.03
2019-02-16T13:24:41.682Z,19.57
2019-02-16T13:27:37.772Z,19.97
2019-02-16T13:30:36.338Z,18.83
2019-02-16T13:33:28.425Z,18.67
2019-02-16T13:36:06.406Z,21.93
2019-02-16T13:38:55.700Z,23.63
2019-02-16T13:42:00.555Z,20.90
2019-02-16T13:45:12.950Z,18.97
2019-02-16T13:48:08.724Z,21.87
2019-02-16T13:51:04.334Z,22.23
2019-02-16T13:53:53.614Z,22.77
2019-02-16T13:56:32.878Z,21.67
2019-02-16T13:59:19.315Z,21.30
2019-02-16T14:01:56.740Z,21.87
2019-02-16T14:04:49.173Z,21.37
2019-02-16T14:07:27.427Z,19.77
2019-02-16T14:10:26.101Z,19.67
2019-02-16T14:13:09.741Z,20.03
2019-02-16T14:15:54.060Z,19.47
2019-02-16T14:18:24.440Z,21.10
2019-02-16T14:20:55.449Z,19.43
2019-02-16T14:23:25.807Z,20.13
2019-02-16T14:25:56.385Z,21.73
2019-02-16T14:28:27.145Z,20.20
2019-02-16T14:30:58.091Z,18.40
2019-02-16T14:33:28.417Z,18.50
2019-02-16T14:35:58.775Z,22.13
2019-02-16T14:38:46.874Z,19.77
2019-02-16T14:41:17.229Z,20.33
2019-02-16T14:43:48.444Z,20.87
2019-02-16T14:46:19.132Z,19.47
2019-02-16T14:48:50.102Z,17.20
2019-02-16T14:51:20.579Z,21.57
2019-02-16T14:53:50.952Z,19.97
2019-02-16T14:56:21.923Z,18.87
2019-02-16T14:58:52.277Z,18.30
2019-02-16T15:01:22.593Z,20.50
2019-02-16T15:03:53.168Z,20.40
2019-02-16T15:06:24.053Z,17.43
2019-02-16T15:09:00.911Z,19.07
2019-02-16T15:11:31.220Z,20.57
2019-02-16T15:14:01.605Z,20.87
2019-02-16T15:16:32.036Z,19.63
2019-02-16T15:19:02.937Z,17.13
2019-02-16T15:21:33.313Z,18.40
2019-02-16T15:24:03.709Z,20.20
2019-02-16T15:26:34.130Z,20.20
2019-02-16T15:29:04.580Z,19.50
2019-02-16T15:31:35.250Z,20.10
2019-02-16T15:34:06.649Z,22.70
2019-02-16T15:36:37.377Z,19.23
2019-02-16T15:39:08.785Z,19.63
2019-02-16T15:41:39.117Z,16.37
2019-02-16T15:44:10.770Z,18.87
2019-02-16T15:46:41.390Z,17.60
2019-02-16T15:49:11.733Z,19.33
2019-02-16T15:51:42.071Z,21.37
2019-02-16T15:54:12.409Z,20.40
2019-02-16T15:56:42.796Z,21.57
2019-02-16T15:59:13.192Z,22.50
2019-02-16T16:01:43.592Z,18.93
2019-02-16T16:04:14.382Z,22.27
2019-02-16T16:06:45.143Z,19.10
2019-02-16T16:09:34.550Z,18.97
2019-02-16T16:12:13.436Z,23.13
2019-02-16T16:14:56.333Z,20.07
2019-02-16T16:17:46.992Z,21.93
2019-02-16T16:20:42.680Z,21.10
2019-02-16T16:23:31.699Z,19.93
2019-02-16T16:26:27.025Z,21.43
2019-02-16T16:29:22.226Z,21.27
2019-02-16T16:32:02.459Z,21.07
2019-02-16T16:34:56.605Z,19.00
2019-02-16T16:37:48.256Z,19.23
2019-02-16T16:40:36.158Z,20.30
2019-02-16T16:43:22.167Z,26.33
2019-02-16T16:46:23.769Z,19.73
2019-02-16T16:49:03.919Z,21.27
2019-02-16T16:51:53.195Z,23.27
2019-02-16T16:54:42.519Z,24.60
2019-02-16T16:57:18.927Z,19.80
2019-02-16T17:00:02.897Z,22.13
2019-02-16T17:02:55.392Z,21.70
2019-02-16T17:05:56.530Z,19.03
2019-02-16T17:08:52.012Z,22.97
2019-02-16T17:11:53.005Z,19.80
2019-02-16T17:14:36.347Z,21.23
2019-02-16T17:17:31.972Z,22.40
2019-02-16T17:20:16.908Z,21.07
2019-02-16T17:23:06.176Z,21.70
2019-02-16T17:25:52.498Z,25.07
2019-02-16T17:29:00.202Z,40.83
2019-02-16T17:32:01.765Z,37.30
2019-02-16T17:34:41.806Z,25.87
2019-02-16T17:37:18.349Z,25.63
2019-02-16T17:40:19.587Z,27.80
2019-02-16T17:43:05.678Z,26.40
2019-02-16T17:46:07.332Z,24.03
2019-02-16T17:48:54.883Z,24.17
2019-02-16T17:51:32.399Z,25.27
2019-02-16T17:54:31.371Z,29.00
2019-02-16T17:57:13.809Z,29.47
2019-02-16T18:00:06.153Z,28.23
2019-02-16T18:02:55.428Z,24.90
2019-02-16T18:05:56.961Z,22.37
2019-02-16T18:08:43.163Z,19.97
2019-02-16T18:11:32.483Z,20.00
2019-02-16T18:14:18.943Z,21.17
2019-02-16T18:17:16.005Z,19.37
2019-02-16T18:20:05.275Z,20.43
2019-02-16T18:22:48.044Z,23.10
2019-02-16T18:25:28.322Z,23.03
2019-02-16T18:28:20.674Z,30.37
2019-02-16T18:31:28.230Z,29.87
2019-02-16T18:34:30.162Z,29.57
2019-02-16T18:37:09.316Z,29.30
2019-02-16T18:40:02.309Z,24.10
2019-02-16T18:43:00.473Z,28.43
2019-02-16T18:45:49.763Z,25.90
2019-02-16T18:48:26.866Z,25.27
2019-02-16T18:51:15.299Z,29.43
2019-02-16T18:53:55.210Z,23.73
2019-02-16T18:57:06.787Z,28.20
2019-02-16T18:59:48.658Z,23.43
2019-02-16T19:02:37.091Z,26.03
2019-02-16T19:05:25.600Z,24.27
2019-02-16T19:08:13.799Z,25.53
2019-02-16T19:11:03.120Z,27.47
2019-02-16T19:13:55.861Z,25.00
2019-02-16T19:16:49.250Z,27.13
2019-02-16T19:19:37.161Z,27.37
2019-02-16T19:22:32.291Z,28.80
2019-02-16T19:25:33.655Z,28.67
2019-02-16T19:28:10.648Z,27.00
2019-02-16T19:30:59.023Z,29.97
2019-02-16T19:34:00.863Z,28.00
2019-02-16T19:36:50.754Z,30.07
2019-02-16T19:39:49.061Z,25.30
2019-02-16T19:42:56.827Z,28.30
2019-02-16T19:45:58.465Z,28.00
2019-02-16T19:48:46.398Z,28.67
2019-02-16T19:51:34.350Z,28.83
2019-02-16T19:54:25.688Z,31.27
2019-02-16T19:57:26.993Z,25.63
2019-02-16T20:00:12.024Z,30.77
2019-02-16T20:03:04.248Z,30.00
2019-02-16T20:05:52.655Z,31.90
2019-02-16T20:08:40.579Z,27.73
2019-02-16T20:11:35.654Z,31.30
2019-02-16T20:14:37.292Z,28.67
2019-02-16T20:17:21.309Z,26.13
2019-02-16T20:20:20.037Z,27.90
2019-02-16T20:23:08.862Z,28.70
2019-02-16T20:25:58.398Z,32.50
2019-02-16T20:28:50.583Z,29.67
2019-02-16T20:31:37.868Z,29.13
2019-02-16T20:34:30.154Z,32.70
2019-02-16T20:37:22.771Z,27.37
2019-02-16T20:40:18.026Z,28.83
2019-02-16T20:42:57.659Z,27.50
2019-02-16T20:45:40.510Z,29.50
2019-02-16T20:48:33.136Z,30.47
2019-02-16T20:51:15.903Z,27.83
2019-02-16T20:54:00.574Z,29.43
2019-02-16T20:56:48.939Z,26.83
2019-02-16T20:59:53.390Z,29.30
2019-02-16T21:02:45.354Z,33.10
2019-02-16T21:05:35.254Z,28.73
2019-02-16T21:08:23.913Z,30.40
2019-02-16T21:11:31.464Z,28.60
2019-02-16T21:14:16.233Z,26.63
2019-02-16T21:17:05.560Z,27.87
2019-02-16T21:19:55.385Z,31.57
2019-02-16T21:22:32.735Z,28.97
2019-02-16T21:25:09.207Z,29.90
2019-02-16T21:27:44.866Z,30.40
2019-02-16T21:30:39.931Z,31.70
2019-02-16T21:33:24.463Z,32.87
2019-02-16T21:36:20.125Z,31.00
2019-02-16T21:39:08.231Z,29.70
2019-02-16T21:42:01.085Z,28.87
2019-02-16T21:44:44.058Z,28.37
2019-02-16T21:47:31.294Z,27.87
2019-02-16T21:50:28.150Z,30.83
2019-02-16T21:53:07.315Z,30.27
2019-02-16T21:55:46.562Z,29.77
2019-02-16T21:58:24.125Z,29.07
2019-02-16T22:01:20.062Z,39.73
2019-02-16T22:03:59.469Z,38.93
2019-02-16T22:06:38.288Z,27.50
2019-02-16T22:09:28.938Z,30.50
2019-02-16T22:12:18.858Z,32.70
2019-02-16T22:14:49.611Z,32.17
2019-02-16T22:17:19.986Z,32.57
2019-02-16T22:19:50.361Z,34.73
2019-02-16T22:22:23.391Z,31.13
2019-02-16T22:24:53.784Z,29.07
2019-02-16T22:27:24.472Z,32.20
2019-02-16T22:29:54.928Z,32.43
2019-02-16T22:32:25.377Z,31.03
2019-02-16T22:34:57.748Z,30.47
2019-02-16T22:37:28.656Z,32.37
2019-02-16T22:39:59.559Z,30.00
2019-02-16T22:42:29.927Z,28.87
2019-02-16T22:45:00.349Z,34.33
2019-02-16T22:47:33.974Z,37.93
2019-02-16T22:50:04.998Z,30.07
2019-02-16T22:52:35.320Z,32.63
2019-02-16T22:55:06.635Z,31.67
2019-02-16T22:57:36.954Z,45.23
2019-02-16T23:00:13.192Z,31.27
2019-02-16T23:02:44.093Z,30.87
2019-02-16T23:05:14.775Z,31.73
2019-02-16T23:07:45.112Z,33.30
2019-02-16T23:10:15.613Z,36.90
2019-02-16T23:12:45.920Z,29.30
2019-02-16T23:15:16.757Z,34.40
2019-02-16T23:17:47.090Z,31.13
2019-02-16T23:20:18.063Z,29.00
2019-02-16T23:22:48.814Z,29.37
2019-02-16T23:25:38.818Z,29.83
2019-02-16T23:28:09.292Z,29.43
2019-02-16T23:30:39.625Z,33.77
2019-02-16T23:33:09.973Z,32.13
2019-02-16T23:35:41.210Z,29.83
2019-02-16T23:38:11.504Z,29.97
2019-02-16T23:40:42.450Z,31.70
2019-02-16T23:43:12.794Z,32.70
2019-02-16T23:45:43.422Z,32.73
2019-02-16T23:48:13.723Z,34.00
2019-02-16T23:50:44.525Z,29.93
2019-02-16T23:53:15.116Z,30.27
2019-02-16T23:55:45.459Z,30.13
2019-02-16T23:58:16.028Z,31.13
